NIUE Airport Information

Runway Information
Runway 10 Length 7660 ft width 148 ft
Elevation 209 ft Threshold ft Heading 110
Runway 28 Length 7660 ft Width 148 ft
Elevation 182 ft Threshold ft Heading 290
Airport Frequencies
Type AFIS Name FSS Frequency 118.1 MHZ
Type RDO Name RDO Frequency 655.3 MHZ
Airport Navaids
Type NDB-DME Name Niue Frequency 345 KHZ
Airport Weather Information & NOTAM
ADDS - METARS form results

(1531 UTC 05 October 2022)
Data provider http://aviationweather.gov/metar/data/
 
METAR text: NIUE 051500Z AUTO 09002KT 22/22 Q1017
Conditions at: NIUE (ALOFI COOK IS , NU) observed 1500 UTC 05 October 2022
Temperature: 22.0°C (72°F)
Dewpoint: 22.0°C (72°F) [RH = 100%]
Pressure (altimeter): 30.03 inches Hg (1017.0 mb)
Winds: from the E (90 degrees) at 2 MPH (2 knots; 1.0 m/s)
Visibility: missing
Ceiling: unknown
Clouds: missing
Weather: no significant weather observed at this time

Forecast for: NIUE (ALOFI COOK IS , NU)
Text: TAF NIUE 051107Z 0512/0612 08005KT 9999 FEW019
Forecast period: 1200 UTC 05 October 2022 to 1200 UTC 06 October 2022
Forecast type: FROM: standard forecast or significant change
Winds: from the E (80 degrees) at 6 MPH (5 knots; 2.6 m/s)
Visibility: 6 or more miles (10+ km)
Ceiling: at least 12,000 feet AGL
Clouds: few clouds at 1900 feet AGL
Weather: no significant weather forecast for this period